createdAt,value
2022-09-23T00:00:14.173Z,993.2
2022-09-23T00:05:33.689Z,993.2
2022-09-23T00:10:53.025Z,993.2
2022-09-23T00:17:27.199Z,993.2
2022-09-23T00:26:52.033Z,993.2
2022-09-23T00:32:10.066Z,993.2
2022-09-23T00:37:29.188Z,993.2
2022-09-23T00:42:48.589Z,993.1
2022-09-23T00:48:07.688Z,993.1
2022-09-23T00:53:26.787Z,993
2022-09-23T01:00:00.941Z,993
2022-09-23T01:09:25.915Z,993
2022-09-23T01:14:45.395Z,992.9
2022-09-23T01:20:04.677Z,992.9
2022-09-23T01:25:23.777Z,993
2022-09-23T01:30:43.008Z,992.9
2022-09-23T01:36:02.159Z,992.9
2022-09-23T01:41:21.172Z,992.9
2022-09-23T01:46:39.768Z,992.8
2022-09-23T01:51:58.954Z,992.8
2022-09-23T01:57:18.615Z,992.8
2022-09-23T02:02:37.706Z,992.8
2022-09-23T02:07:56.515Z,992.7
2022-09-23T02:13:15.509Z,992.7
2022-09-23T02:18:34.590Z,992.7
2022-09-23T02:23:53.496Z,992.7
2022-09-23T02:29:12.531Z,992.7
2022-09-23T02:34:32.838Z,992.8
2022-09-23T02:39:51.438Z,992.7
2022-09-23T02:45:11.273Z,992.6
2022-09-23T02:50:31.020Z,992.5
2022-09-23T02:55:49.805Z,992.5
2022-09-23T03:01:09.176Z,992.5
2022-09-23T03:07:43.294Z,992.4
2022-09-23T03:11:48.541Z,992.4
2022-09-23T03:17:08.025Z,992.4
2022-09-23T03:22:27.437Z,992.4
2022-09-23T03:27:46.706Z,992.4
2022-09-23T03:36:19.767Z,992.4
2022-09-23T03:40:34.500Z,992.4
2022-09-23T03:44:07.980Z,992.3
2022-09-23T03:49:02.659Z,992.3
2022-09-23T03:54:20.544Z,992.2
2022-09-23T04:10:18.946Z,992.1
2022-09-23T04:15:38.610Z,992.1
2022-09-23T04:20:58.467Z,992
2022-09-23T04:26:17.013Z,991.9
2022-09-23T04:31:36.039Z,991.9
2022-09-23T04:36:56.334Z,992
2022-09-23T04:43:30.494Z,992
2022-09-23T04:47:35.165Z,992
2022-09-23T04:52:53.991Z,992.1
2022-09-23T04:58:13.867Z,992.1
2022-09-23T05:03:32.766Z,992.1
2022-09-23T05:10:06.922Z,992.1
2022-09-23T05:14:11.248Z,992
2022-09-23T05:19:30.700Z,992.1
2022-09-23T05:24:49.195Z,992.1
2022-09-23T05:30:08.096Z,992.1
2022-09-23T05:35:28.192Z,992
2022-09-23T05:40:47.481Z,992.1
2022-09-23T05:46:08.283Z,992.1
2022-09-23T05:52:41.261Z,992.1
2022-09-23T05:56:46.312Z,992.1
2022-09-23T06:02:05.790Z,992.1
2022-09-23T06:07:24.592Z,992.1
2022-09-23T06:12:43.539Z,992.1
2022-09-23T06:18:03.508Z,992.1
2022-09-23T06:24:37.686Z,992
2022-09-23T06:28:54.257Z,992
2022-09-23T06:34:10.331Z,992
2022-09-23T06:39:21.409Z,991.9
2022-09-23T06:47:54.498Z,991.9
2022-09-23T06:55:19.219Z,991.9
2022-09-23T07:01:53.633Z,991.9
2022-09-23T07:06:08.792Z,991.9
2022-09-23T07:13:07.383Z,991.9
2022-09-23T07:17:23.911Z,991.8
2022-09-23T07:21:56.602Z,991.7
2022-09-23T07:27:16.073Z,991.7
2022-09-23T07:35:49.137Z,991.7
2022-09-23T07:43:13.164Z,991.7
2022-09-23T07:49:47.330Z,991.7
2022-09-23T07:54:02.720Z,991.6
2022-09-23T07:59:11.667Z,991.6
2022-09-23T08:05:45.828Z,991.6
2022-09-23T08:09:51.162Z,991.6
2022-09-23T08:15:10.179Z,991.6
2022-09-23T08:20:29.621Z,991.6
2022-09-23T08:26:01.059Z,991.6
2022-09-23T08:34:22.095Z,991.5
2022-09-23T08:42:55.156Z,991.4
2022-09-23T08:47:11.708Z,991.4
2022-09-23T08:52:23.763Z,991.4
2022-09-23T09:00:56.815Z,991.4
2022-09-23T09:13:41.123Z,991.2
2022-09-23T09:19:00.333Z,991.1
2022-09-23T09:24:19.697Z,991.1
2022-09-23T09:29:39.229Z,991
2022-09-23T09:34:58.266Z,991
2022-09-23T09:43:32.333Z,990.9
2022-09-23T09:47:46.688Z,990.8
2022-09-23T09:54:45.269Z,990.8
2022-09-23T09:59:01.804Z,990.7
2022-09-23T10:03:18.301Z,990.7
2022-09-23T10:07:34.799Z,990.6
2022-09-23T10:12:11.642Z,990.5
2022-09-23T10:17:31.173Z,990.5
2022-09-23T10:22:50.738Z,990.5
2022-09-23T10:28:09.750Z,990.5
2022-09-23T10:33:28.429Z,990.4
2022-09-23T10:38:48.056Z,990.3
2022-09-23T10:47:21.108Z,990.3
2022-09-23T10:49:26.466Z,990.3
2022-09-23T10:54:45.392Z,990.3
2022-09-23T11:00:04.323Z,990.2
2022-09-23T11:08:37.390Z,990.1
2022-09-23T11:12:52.785Z,990.1
2022-09-23T11:16:00.272Z,990
2022-09-23T11:21:19.584Z,990
2022-09-23T11:26:38.955Z,990
2022-09-23T11:31:59.625Z,989.9
2022-09-23T11:37:17.202Z,989.8
2022-09-23T11:42:36.642Z,989.8
2022-09-23T11:47:55.572Z,989.6
2022-09-23T11:53:14.902Z,989.6
2022-09-23T11:58:34.492Z,989.5
2022-09-23T12:03:53.623Z,989.4
2022-09-23T12:09:12.682Z,989.3
2022-09-23T12:14:31.914Z,989.3
2022-09-23T12:21:06.057Z,989.2
2022-09-23T12:25:11.122Z,989.2
2022-09-23T12:33:44.209Z,989.2
2022-09-23T12:41:08.633Z,989.2
2022-09-23T12:46:27.979Z,989.2
2022-09-23T12:51:46.779Z,989.1
2022-09-23T12:57:05.927Z,989.1
2022-09-23T13:02:25.309Z,989
2022-09-23T13:07:44.638Z,989
2022-09-23T13:13:03.462Z,989
2022-09-23T13:18:22.885Z,988.9
2022-09-23T13:23:42.444Z,988.8
2022-09-23T13:29:02.033Z,988.7
2022-09-23T13:34:20.333Z,988.7
2022-09-23T13:39:38.929Z,988.6
2022-09-23T13:46:13.206Z,988.5
2022-09-23T13:55:36.791Z,988.5
2022-09-23T14:00:56.444Z,988.4
2022-09-23T14:06:15.367Z,988.4
2022-09-23T14:11:34.945Z,988.4
2022-09-23T14:16:54.378Z,988.3
2022-09-23T14:22:13.566Z,988.3
2022-09-23T14:27:32.767Z,988.3
2022-09-23T14:32:51.846Z,988.3
2022-09-23T14:38:11.426Z,988.3
2022-09-23T14:38:38.163Z,988.3
2022-09-23T14:43:57.209Z,988.2
2022-09-23T14:49:16.811Z,988.2
2022-09-23T14:54:34.728Z,988.2
2022-09-23T14:59:54.106Z,988.2
2022-09-23T15:05:14.128Z,988.1
2022-09-23T15:10:33.244Z,988.1
2022-09-23T15:15:51.523Z,988
2022-09-23T15:21:11.144Z,987.9
2022-09-23T15:26:30.089Z,988
2022-09-23T15:31:50.552Z,987.9
2022-09-23T15:37:09.196Z,988
2022-09-23T15:42:28.847Z,988.1
2022-09-23T15:47:48.461Z,988
2022-09-23T15:54:22.615Z,988
2022-09-23T15:58:39.146Z,987.9
2022-09-23T16:03:47.041Z,987.8
2022-09-23T16:09:06.313Z,987.9
2022-09-23T16:14:25.642Z,987.9
2022-09-23T16:19:44.675Z,987.9
2022-09-23T16:25:04.167Z,987.9
2022-09-23T16:30:23.806Z,987.9
2022-09-23T16:35:43.265Z,987.9
2022-09-23T16:41:02.511Z,988
2022-09-23T16:46:21.195Z,987.9
2022-09-23T16:51:39.897Z,988
2022-09-23T16:56:58.997Z,988
2022-09-23T17:02:18.044Z,988
2022-09-23T17:07:37.097Z,988
2022-09-23T17:14:11.272Z,988.1
2022-09-23T17:18:19.487Z,988
2022-09-23T17:23:35.840Z,988
2022-09-23T17:32:08.901Z,988
2022-09-23T17:34:14.100Z,988
2022-09-23T17:44:52.769Z,988
2022-09-23T17:50:11.943Z,988
2022-09-23T17:55:30.978Z,988
2022-09-23T18:00:50.071Z,988
2022-09-23T18:06:09.680Z,988
2022-09-23T18:11:29.044Z,988
2022-09-23T18:20:34.515Z,987.9
2022-09-23T18:29:07.617Z,988.1
2022-09-23T18:32:45.282Z,988
2022-09-23T18:39:44.628Z,988
2022-09-23T18:43:25.881Z,988.1
2022-09-23T18:51:58.518Z,988.1
2022-09-23T19:00:31.628Z,988
2022-09-23T19:04:40.626Z,988.1
2022-09-23T19:11:39.249Z,988.1
2022-09-23T19:20:37.988Z,987.9
2022-09-23T19:25:57.030Z,988
2022-09-23T19:31:16.711Z,988
2022-09-23T19:36:35.805Z,987.9
2022-09-23T19:43:10.004Z,988
2022-09-23T19:47:25.352Z,987.9
2022-09-23T19:52:33.486Z,988
2022-09-23T19:57:52.759Z,987.9
2022-09-23T20:03:11.672Z,987.8
2022-09-23T20:08:30.416Z,987.8
2022-09-23T20:13:50.499Z,987.8
2022-09-23T20:19:09.512Z,987.8
2022-09-23T20:24:29.394Z,987.9
2022-09-23T20:29:49.020Z,987.9
2022-09-23T20:35:08.131Z,987.8
2022-09-23T20:42:06.731Z,987.9
2022-09-23T20:45:48.121Z,987.8
2022-09-23T20:51:06.679Z,987.8
2022-09-23T20:59:39.777Z,987.8
2022-09-23T21:08:12.838Z,987.7
2022-09-23T21:12:21.839Z,987.7
2022-09-23T21:17:40.942Z,987.6
2022-09-23T21:22:59.881Z,987.7
2022-09-23T21:28:20.106Z,987.6
2022-09-23T21:33:39.147Z,987.5
2022-09-23T21:38:58.614Z,987.5
2022-09-23T21:45:32.772Z,987.5
2022-09-23T21:54:58.260Z,987.4
2022-09-23T22:00:16.441Z,987.5
2022-09-23T22:05:35.645Z,987.5
2022-09-23T22:10:54.091Z,987.7
2022-09-23T22:16:13.886Z,987.7
2022-09-23T22:22:47.987Z,987.7
2022-09-23T22:26:52.640Z,987.7
2022-09-23T22:32:12.167Z,987.6
2022-09-23T22:37:30.944Z,987.7
2022-09-23T22:42:49.829Z,987.7
2022-09-23T22:48:09.449Z,987.7
2022-09-23T22:53:27.968Z,987.7
2022-09-23T22:58:47.920Z,987.6
2022-09-23T23:05:22.086Z,987.6
2022-09-23T23:09:26.618Z,987.6
2022-09-23T23:14:46.213Z,987.6
2022-09-23T23:20:05.686Z,987.5
2022-09-23T23:25:24.496Z,987.5
2022-09-23T23:30:43.827Z,987.4
2022-09-23T23:36:02.787Z,987.3
2022-09-23T23:41:22.053Z,987.3
2022-09-23T23:46:41.904Z,987.3
2022-09-23T23:53:16.039Z,987.3
2022-09-23T23:57:20.103Z,987.2
